createdAt,value
2023-04-02T00:00:06.403Z,99.99
2023-04-02T00:00:38.836Z,99.99
2023-04-02T00:01:11.287Z,99.99
2023-04-02T00:01:43.858Z,99.99
2023-04-02T00:02:16.335Z,99.99
2023-04-02T00:02:48.793Z,99.99
2023-04-02T00:03:21.304Z,99.99
2023-04-02T00:03:53.909Z,99.99
2023-04-02T00:04:26.170Z,99.99
2023-04-02T00:04:58.584Z,99.99
2023-04-02T00:05:31.021Z,99.99
2023-04-02T00:06:03.459Z,99.99
2023-04-02T00:06:35.924Z,99.99
2023-04-02T00:07:08.367Z,99.99
2023-04-02T00:07:40.812Z,99.99
2023-04-02T00:08:13.265Z,99.99
2023-04-02T00:08:45.714Z,99.99
2023-04-02T00:09:18.104Z,99.99
2023-04-02T00:09:50.564Z,99.99
2023-04-02T00:10:23.011Z,99.99
2023-04-02T00:10:55.447Z,99.99
2023-04-02T00:11:27.882Z,99.99
2023-04-02T00:12:00.365Z,99.99
2023-04-02T00:12:32.765Z,99.99
2023-04-02T00:13:05.292Z,99.99
2023-04-02T00:13:37.746Z,99.99
2023-04-02T00:14:10.146Z,99.99
2023-04-02T00:14:42.612Z,99.99
2023-04-02T00:15:15.084Z,99.99
2023-04-02T00:15:47.523Z,99.99
2023-04-02T00:16:20.001Z,99.99
2023-04-02T00:16:52.441Z,99.99
2023-04-02T00:17:25.024Z,99.99
2023-04-02T00:17:57.414Z,99.99
2023-04-02T00:18:29.928Z,99.99
2023-04-02T00:19:02.437Z,99.99
2023-04-02T00:19:34.877Z,99.99
2023-04-02T00:20:07.337Z,99.99
2023-04-02T00:20:39.774Z,99.99
2023-04-02T00:21:12.184Z,99.99
2023-04-02T00:21:44.691Z,99.99
2023-04-02T00:22:17.137Z,99.99
2023-04-02T00:22:49.602Z,99.99
2023-04-02T00:23:22.076Z,99.99
2023-04-02T00:23:54.526Z,99.99
2023-04-02T00:24:27.000Z,99.99
2023-04-02T00:24:59.440Z,99.99
2023-04-02T00:25:31.910Z,99.99
2023-04-02T00:26:04.343Z,99.99
2023-04-02T00:26:36.763Z,99.99
2023-04-02T00:27:09.239Z,99.99
2023-04-02T00:27:41.706Z,99.99
2023-04-02T00:28:14.142Z,99.99
2023-04-02T00:28:46.603Z,99.99
2023-04-02T00:29:19.061Z,99.99
2023-04-02T00:29:51.493Z,99.99
2023-04-02T00:30:23.923Z,99.99
2023-04-02T00:30:56.342Z,99.99
2023-04-02T00:31:28.823Z,99.99
2023-04-02T00:32:01.302Z,99.99
2023-04-02T00:32:33.741Z,99.99
2023-04-02T00:33:06.224Z,99.99
2023-04-02T00:33:38.694Z,99.99
2023-04-02T00:34:11.220Z,99.99
2023-04-02T00:34:43.651Z,99.99
2023-04-02T00:35:16.120Z,99.99
2023-04-02T00:35:48.668Z,99.99
2023-04-02T00:36:21.108Z,99.99
2023-04-02T00:36:53.622Z,99.99
2023-04-02T00:37:26.064Z,99.99
2023-04-02T00:37:58.580Z,99.99
2023-04-02T00:38:31.055Z,99.99
2023-04-02T00:39:03.531Z,99.99
2023-04-02T00:39:35.966Z,99.99
2023-04-02T00:40:08.388Z,99.99
2023-04-02T00:40:40.883Z,99.99
2023-04-02T00:41:20.867Z,99.99
2023-04-02T00:41:53.355Z,99.99
2023-04-02T00:42:25.807Z,99.99
2023-04-02T00:42:58.248Z,99.99
2023-04-02T00:43:30.708Z,99.99
2023-04-02T00:44:03.254Z,99.99
2023-04-02T00:44:35.717Z,99.99
2023-04-02T00:45:08.229Z,99.99
2023-04-02T00:45:40.712Z,99.99
2023-04-02T00:46:13.270Z,99.99
2023-04-02T00:46:45.694Z,99.99
2023-04-02T00:47:18.184Z,99.99
2023-04-02T00:47:50.771Z,99.99
2023-04-02T00:48:23.205Z,99.99
2023-04-02T00:48:55.746Z,99.99
2023-04-02T00:49:28.266Z,99.99
2023-04-02T00:50:00.761Z,99.99
2023-04-02T00:50:33.228Z,99.99
2023-04-02T00:51:05.691Z,99.99
2023-04-02T00:51:38.208Z,99.99
2023-04-02T00:52:10.661Z,99.99
2023-04-02T00:52:43.164Z,99.99
2023-04-02T00:53:15.665Z,99.99
2023-04-02T00:53:48.172Z,99.99
2023-04-02T00:54:20.692Z,99.99
2023-04-02T00:54:53.193Z,99.99
2023-04-02T00:55:33.018Z,99.99
2023-04-02T00:56:05.211Z,99.99
2023-04-02T00:56:37.720Z,99.99
2023-04-02T00:57:10.218Z,99.99
2023-04-02T00:57:42.654Z,99.99
2023-04-02T00:58:15.173Z,99.99
2023-04-02T00:58:47.656Z,99.99
2023-04-02T00:59:20.147Z,99.99
2023-04-02T00:59:52.746Z,99.99
2023-04-02T01:00:25.224Z,99.99
2023-04-02T01:00:57.723Z,99.99
2023-04-02T01:01:30.246Z,99.99
2023-04-02T01:02:02.790Z,99.99
2023-04-02T01:02:35.313Z,99.99
2023-04-02T01:03:07.800Z,99.99
2023-04-02T01:03:40.386Z,99.99
2023-04-02T01:04:12.660Z,99.99
2023-04-02T01:04:45.142Z,99.99
2023-04-02T01:05:17.643Z,99.99
2023-04-02T01:05:50.168Z,99.99
2023-04-02T01:06:22.694Z,99.99
2023-04-02T01:06:55.154Z,99.99
2023-04-02T01:07:27.651Z,99.99
2023-04-02T01:08:00.161Z,99.99
2023-04-02T01:08:32.617Z,99.99
2023-04-02T01:09:05.058Z,99.99
2023-04-02T01:09:37.568Z,99.99
2023-04-02T01:10:10.050Z,99.99
2023-04-02T01:10:42.601Z,99.99
2023-04-02T01:11:15.057Z,99.99
2023-04-02T01:11:47.567Z,99.99
2023-04-02T01:12:20.060Z,99.99
2023-04-02T01:12:52.601Z,99.99
2023-04-02T01:13:25.104Z,99.99
2023-04-02T01:13:57.576Z,99.99
2023-04-02T01:14:30.094Z,99.99
2023-04-02T01:15:02.586Z,99.99
2023-04-02T01:15:35.291Z,99.99
2023-04-02T01:16:07.505Z,99.99
2023-04-02T01:16:39.978Z,99.99
2023-04-02T01:17:12.515Z,99.99
2023-04-02T01:17:45.009Z,99.99
2023-04-02T01:18:17.469Z,99.99
2023-04-02T01:18:49.905Z,99.99
2023-04-02T01:19:22.390Z,99.99
2023-04-02T01:19:54.835Z,99.99
2023-04-02T01:20:27.257Z,99.99
2023-04-02T01:20:59.722Z,99.99
2023-04-02T01:21:32.203Z,99.99
2023-04-02T01:22:04.670Z,99.99
2023-04-02T01:22:37.156Z,99.99
2023-04-02T01:23:09.705Z,99.99
2023-04-02T01:23:42.159Z,99.99
2023-04-02T01:24:14.637Z,99.99
2023-04-02T01:24:47.118Z,99.99
2023-04-02T01:25:19.640Z,99.99
2023-04-02T01:25:52.140Z,99.99
2023-04-02T01:26:24.603Z,99.99
2023-04-02T01:26:57.086Z,99.99
2023-04-02T01:27:29.592Z,99.99
2023-04-02T01:28:02.051Z,99.99
2023-04-02T01:28:34.520Z,99.99
2023-04-02T01:29:06.979Z,99.99
2023-04-02T01:29:39.535Z,99.99
2023-04-02T01:30:12.000Z,99.99
2023-04-02T01:30:44.476Z,99.99
2023-04-02T01:31:16.976Z,99.99
2023-04-02T01:31:49.574Z,99.99
2023-04-02T01:32:22.038Z,99.99
2023-04-02T01:32:54.530Z,99.99
2023-04-02T01:33:27.014Z,99.99
2023-04-02T01:33:59.446Z,99.99
2023-04-02T01:34:31.922Z,99.99
2023-04-02T01:35:04.427Z,99.99
2023-04-02T01:35:37.245Z,99.99
2023-04-02T01:36:09.421Z,99.99
2023-04-02T01:36:41.845Z,99.99
2023-04-02T01:37:14.316Z,99.99
2023-04-02T01:37:46.845Z,99.99
2023-04-02T01:38:19.263Z,99.99
2023-04-02T01:38:51.753Z,99.99
2023-04-02T01:39:24.263Z,99.99
2023-04-02T01:39:56.722Z,99.99
2023-04-02T01:40:29.160Z,99.99
2023-04-02T01:41:01.656Z,99.99
2023-04-02T01:41:34.117Z,99.99
2023-04-02T01:42:06.608Z,99.99
2023-04-02T01:42:39.110Z,99.99
2023-04-02T01:43:11.582Z,99.99
2023-04-02T01:43:44.058Z,99.99
2023-04-02T01:44:16.514Z,99.99
2023-04-02T01:44:48.991Z,99.99
2023-04-02T01:45:21.426Z,99.99
2023-04-02T01:45:53.906Z,99.99
2023-04-02T01:46:26.407Z,99.99
2023-04-02T01:46:58.865Z,99.99
2023-04-02T01:47:31.385Z,99.99
2023-04-02T01:48:03.861Z,99.99
2023-04-02T01:48:36.394Z,99.99
2023-04-02T01:49:08.880Z,99.99
2023-04-02T01:49:41.373Z,99.99
2023-04-02T01:50:13.905Z,99.99
2023-04-02T01:50:46.388Z,99.99
2023-04-02T01:51:18.889Z,99.99
2023-04-02T01:51:51.368Z,99.99
2023-04-02T01:52:23.810Z,99.99
2023-04-02T01:52:56.309Z,99.99
2023-04-02T01:53:28.795Z,99.99
2023-04-02T01:54:01.259Z,99.99
2023-04-02T01:54:33.738Z,99.99
2023-04-02T01:55:06.212Z,99.99
2023-04-02T01:55:38.650Z,99.99
2023-04-02T01:56:11.134Z,99.99
2023-04-02T01:56:43.624Z,99.99
2023-04-02T01:57:16.131Z,99.99
2023-04-02T01:57:48.523Z,99.99
2023-04-02T01:58:21.042Z,99.99
2023-04-02T01:58:53.489Z,99.99
2023-04-02T01:59:25.974Z,99.99
2023-04-02T01:59:58.451Z,99.99
2023-04-02T02:00:31.021Z,99.99
2023-04-02T02:01:03.519Z,99.99
2023-04-02T02:01:35.954Z,99.99
2023-04-02T02:02:08.476Z,99.99
2023-04-02T02:02:41.037Z,99.99
2023-04-02T02:03:13.397Z,99.99
2023-04-02T02:03:45.872Z,99.99
2023-04-02T02:04:18.310Z,99.99
2023-04-02T02:04:50.767Z,99.99
2023-04-02T02:05:23.273Z,99.99
2023-04-02T02:05:55.749Z,99.99
2023-04-02T02:06:28.288Z,99.99
2023-04-02T02:07:00.803Z,99.99
2023-04-02T02:07:33.238Z,99.99
2023-04-02T02:08:05.693Z,99.99
2023-04-02T02:08:38.194Z,99.99
2023-04-02T02:09:18.224Z,99.99
2023-04-02T02:09:50.690Z,99.99
2023-04-02T02:10:23.114Z,99.99
2023-04-02T02:10:55.595Z,99.99
2023-04-02T02:11:28.028Z,99.99
2023-04-02T02:12:00.466Z,99.99
2023-04-02T02:12:32.918Z,99.99
2023-04-02T02:13:05.310Z,99.99
2023-04-02T02:13:37.787Z,99.99
2023-04-02T02:14:10.262Z,99.99
2023-04-02T02:14:42.717Z,99.99
2023-04-02T02:15:15.169Z,99.99
2023-04-02T02:15:47.612Z,99.99
2023-04-02T02:16:20.119Z,99.99
2023-04-02T02:16:52.504Z,99.99
2023-04-02T02:17:24.967Z,99.99
2023-04-02T02:17:57.415Z,99.99
2023-04-02T02:18:29.819Z,99.99
2023-04-02T02:19:02.282Z,99.99
2023-04-02T02:19:34.745Z,99.99
2023-04-02T02:20:07.210Z,99.99
2023-04-02T02:20:39.647Z,99.99
2023-04-02T02:21:12.095Z,99.99
2023-04-02T02:21:44.566Z,99.99
2023-04-02T02:22:17.040Z,99.99
2023-04-02T02:22:49.529Z,99.99
2023-04-02T02:23:22.022Z,99.99
2023-04-02T02:23:54.443Z,99.99
2023-04-02T02:24:26.911Z,99.99
2023-04-02T02:24:59.384Z,99.99
2023-04-02T02:25:31.913Z,99.99
2023-04-02T02:26:04.319Z,99.99
2023-04-02T02:26:36.755Z,99.99
2023-04-02T02:27:09.213Z,99.99
2023-04-02T02:27:41.688Z,99.99
2023-04-02T02:28:14.136Z,99.99
2023-04-02T02:28:46.595Z,99.99
2023-04-02T02:29:19.080Z,99.99
2023-04-02T02:29:51.524Z,99.99
2023-04-02T02:30:23.975Z,99.99
2023-04-02T02:30:56.450Z,99.99
2023-04-02T02:31:28.937Z,99.99
2023-04-02T02:32:01.377Z,99.99
2023-04-02T02:32:33.828Z,99.99
2023-04-02T02:33:06.269Z,99.99
2023-04-02T02:33:38.733Z,99.99
2023-04-02T02:34:11.206Z,99.99
2023-04-02T02:34:43.654Z,99.99
2023-04-02T02:35:16.145Z,99.99
2023-04-02T02:35:48.623Z,99.99
2023-04-02T02:36:21.054Z,99.99
2023-04-02T02:36:53.433Z,99.99
2023-04-02T02:37:25.838Z,99.99
2023-04-02T02:37:58.292Z,99.99
2023-04-02T02:38:30.758Z,99.99
2023-04-02T02:39:03.248Z,99.99
2023-04-02T02:39:35.690Z,99.99
2023-04-02T02:40:08.194Z,99.99
2023-04-02T02:40:40.698Z,99.99
2023-04-02T02:41:13.181Z,99.99
2023-04-02T02:41:45.643Z,99.99
2023-04-02T02:42:18.115Z,99.99
2023-04-02T02:42:50.562Z,99.99
2023-04-02T02:43:23.022Z,99.99
2023-04-02T02:43:55.468Z,99.99
2023-04-02T02:44:27.970Z,99.99
2023-04-02T02:45:00.423Z,99.99
2023-04-02T02:45:33.136Z,99.99
2023-04-02T02:46:05.321Z,99.99
2023-04-02T02:46:37.782Z,99.99
2023-04-02T02:47:10.249Z,99.99
2023-04-02T02:47:42.739Z,99.99
2023-04-02T02:48:15.177Z,99.99
2023-04-02T02:48:47.629Z,99.99
2023-04-02T02:49:20.061Z,99.99
2023-04-02T02:49:52.526Z,99.99
2023-04-02T02:50:25.032Z,99.99
2023-04-02T02:50:57.550Z,99.99
2023-04-02T02:51:30.034Z,99.99
2023-04-02T02:52:02.522Z,99.99
2023-04-02T02:52:34.973Z,99.99
2023-04-02T02:53:07.416Z,99.99
2023-04-02T02:53:39.907Z,99.99
2023-04-02T02:54:12.352Z,99.99
2023-04-02T02:54:44.853Z,99.99
2023-04-02T02:55:17.428Z,99.99
2023-04-02T02:55:49.910Z,99.99
2023-04-02T02:56:22.378Z,99.99
2023-04-02T02:56:54.821Z,99.99
2023-04-02T02:57:27.227Z,99.99
2023-04-02T02:57:59.676Z,99.99
2023-04-02T02:58:32.126Z,99.99
2023-04-02T02:59:04.565Z,99.99
2023-04-02T02:59:37.026Z,99.99
2023-04-02T03:00:09.505Z,99.99
2023-04-02T03:00:41.977Z,99.99
2023-04-02T03:01:14.445Z,99.99
2023-04-02T03:01:46.881Z,99.99
2023-04-02T03:02:19.311Z,99.99
2023-04-02T03:02:51.757Z,99.99
2023-04-02T03:03:24.307Z,99.99
2023-04-02T03:03:56.827Z,99.99
2023-04-02T03:04:29.073Z,99.99
2023-04-02T03:05:01.499Z,99.99
2023-04-02T03:05:34.259Z,99.99
2023-04-02T03:06:06.435Z,99.99
2023-04-02T03:06:38.910Z,99.99
2023-04-02T03:07:11.315Z,99.99
2023-04-02T03:07:43.765Z,99.99
2023-04-02T03:08:16.258Z,99.99
2023-04-02T03:08:48.701Z,99.99
2023-04-02T03:09:21.164Z,99.99
2023-04-02T03:09:53.671Z,99.99
2023-04-02T03:10:26.197Z,99.99
2023-04-02T03:10:58.599Z,99.99
2023-04-02T03:11:31.058Z,99.99
2023-04-02T03:12:03.505Z,99.99
2023-04-02T03:12:35.926Z,99.99
2023-04-02T03:13:08.378Z,99.99
2023-04-02T03:13:40.816Z,99.99
2023-04-02T03:14:13.270Z,99.99
2023-04-02T03:14:45.738Z,99.99
2023-04-02T03:15:18.190Z,99.99
2023-04-02T03:15:50.708Z,99.99
2023-04-02T03:16:23.192Z,99.99
2023-04-02T03:16:55.630Z,99.99
2023-04-02T03:17:28.113Z,99.99
2023-04-02T03:18:00.643Z,99.99
2023-04-02T03:18:33.022Z,99.99
2023-04-02T03:19:05.502Z,99.99
2023-04-02T03:19:38.001Z,99.99
2023-04-02T03:20:10.493Z,99.99
2023-04-02T03:20:42.979Z,99.99
2023-04-02T03:21:15.430Z,99.99
2023-04-02T03:21:47.893Z,99.71
2023-04-02T03:22:20.391Z,99.51
2023-04-02T03:22:52.812Z,99.61
2023-04-02T03:23:25.229Z,99.82
2023-04-02T03:23:57.717Z,99.82
2023-04-02T03:24:30.167Z,99.92
2023-04-02T03:25:02.618Z,99.51
2023-04-02T03:25:35.302Z,99.40
2023-04-02T03:26:07.561Z,99.51
2023-04-02T03:26:40.000Z,99.71
2023-04-02T03:27:12.462Z,99.61
2023-04-02T03:27:44.920Z,99.61
2023-04-02T03:28:17.394Z,99.51
2023-04-02T03:28:49.890Z,99.65
2023-04-02T03:29:22.333Z,99.65
2023-04-02T03:29:54.793Z,99.61
2023-04-02T03:30:27.256Z,99.44
2023-04-02T03:30:59.712Z,99.13
2023-04-02T03:31:32.167Z,99.24
2023-04-02T03:32:04.660Z,99.24
2023-04-02T03:32:37.119Z,99.34
2023-04-02T03:33:09.614Z,99.44
2023-04-02T03:33:42.010Z,99.55
2023-04-02T03:34:14.546Z,99.65
2023-04-02T03:34:47.012Z,99.55
2023-04-02T03:35:19.653Z,99.55
2023-04-02T03:35:52.143Z,99.34
2023-04-02T03:36:24.597Z,99.24
2023-04-02T03:36:56.982Z,99.13
2023-04-02T03:37:29.442Z,99.24
2023-04-02T03:38:01.911Z,99.13
2023-04-02T03:38:34.358Z,99.13
2023-04-02T03:39:06.812Z,99.03
2023-04-02T03:39:39.284Z,99.13
2023-04-02T03:40:11.726Z,99.13
2023-04-02T03:40:44.183Z,99.34
2023-04-02T03:41:16.667Z,99.55
2023-04-02T03:41:49.136Z,99.55
2023-04-02T03:42:21.585Z,99.44
2023-04-02T03:42:54.000Z,99.55
2023-04-02T03:43:26.462Z,99.55
2023-04-02T03:43:58.926Z,99.55
2023-04-02T03:44:31.342Z,99.55
2023-04-02T03:45:03.792Z,99.44
2023-04-02T03:45:36.424Z,99.55
2023-04-02T03:46:08.744Z,99.65
2023-04-02T03:46:41.176Z,99.65
2023-04-02T03:47:13.585Z,99.44
2023-04-02T03:47:46.120Z,99.24
2023-04-02T03:48:18.539Z,99.13
2023-04-02T03:48:50.976Z,99.34
2023-04-02T03:49:23.441Z,99.44
2023-04-02T03:49:57.305Z,99.24
2023-04-02T03:50:29.759Z,99.24
2023-04-02T03:51:02.197Z,99.24
2023-04-02T03:51:34.671Z,99.24
2023-04-02T03:52:07.187Z,99.34
2023-04-02T03:52:39.630Z,99.44
2023-04-02T03:53:12.174Z,99.55
2023-04-02T03:53:44.656Z,99.55
2023-04-02T03:54:17.165Z,99.65
2023-04-02T03:54:53.916Z,99.65
2023-04-02T03:55:22.096Z,99.55
2023-04-02T03:55:54.567Z,99.44
2023-04-02T03:56:27.023Z,99.55
2023-04-02T03:56:59.651Z,99.76
2023-04-02T03:57:32.120Z,99.55
2023-04-02T03:58:04.571Z,99.24
2023-04-02T03:58:37.035Z,99.13
2023-04-02T03:59:09.494Z,98.93
2023-04-02T03:59:41.954Z,98.93
2023-04-02T04:00:14.467Z,98.93
2023-04-02T04:00:46.876Z,99.03
2023-04-02T04:01:19.324Z,99.03
2023-04-02T04:01:51.866Z,99.24
2023-04-02T04:02:24.390Z,99.13
2023-04-02T04:02:56.794Z,98.93
2023-04-02T04:03:29.239Z,98.72
2023-04-02T04:04:01.732Z,98.51
2023-04-02T04:04:34.153Z,98.51
2023-04-02T04:05:06.638Z,98.61
2023-04-02T04:05:39.095Z,98.72
2023-04-02T04:06:11.506Z,98.61
2023-04-02T04:06:43.967Z,98.20
2023-04-02T04:07:16.426Z,98.10
2023-04-02T04:07:48.866Z,98.30
2023-04-02T04:08:21.335Z,98.41
2023-04-02T04:08:53.813Z,98.51
2023-04-02T04:09:26.270Z,98.72
2023-04-02T04:09:58.767Z,98.82
2023-04-02T04:10:31.227Z,98.72
2023-04-02T04:11:03.681Z,98.66
2023-04-02T04:11:36.132Z,98.61
2023-04-02T04:12:08.572Z,98.61
2023-04-02T04:12:41.037Z,98.72
2023-04-02T04:13:13.499Z,98.82
2023-04-02T04:13:45.955Z,98.72
2023-04-02T04:14:18.425Z,98.24
2023-04-02T04:14:50.884Z,97.72
2023-04-02T04:15:23.344Z,97.72
2023-04-02T04:15:55.812Z,97.93
2023-04-02T04:16:28.308Z,97.99
2023-04-02T04:17:00.750Z,98.14
2023-04-02T04:17:33.183Z,98.14
2023-04-02T04:18:05.645Z,98.24
2023-04-02T04:18:38.127Z,97.83
2023-04-02T04:19:10.572Z,97.62
2023-04-02T04:19:43.043Z,97.41
2023-04-02T04:20:15.486Z,97.52
2023-04-02T04:20:47.908Z,97.41
2023-04-02T04:21:20.393Z,97.52
2023-04-02T04:21:52.833Z,97.52
2023-04-02T04:22:25.264Z,97.72
2023-04-02T04:22:57.688Z,97.93
2023-04-02T04:23:30.243Z,97.93
2023-04-02T04:24:02.688Z,97.93
2023-04-02T04:24:35.140Z,97.93
2023-04-02T04:25:07.547Z,98.03
2023-04-02T04:25:40.005Z,98.14
2023-04-02T04:26:12.430Z,98.03
2023-04-02T04:26:44.896Z,97.72
2023-04-02T04:27:17.365Z,97.83
2023-04-02T04:27:49.808Z,98.03
2023-04-02T04:28:22.279Z,97.93
2023-04-02T04:28:54.723Z,98.03
2023-04-02T04:29:27.206Z,98.24
2023-04-02T04:29:59.681Z,98.35
2023-04-02T04:30:32.147Z,98.14
2023-04-02T04:31:04.606Z,98.24
2023-04-02T04:31:37.092Z,98.45
2023-04-02T04:32:09.556Z,98.55
2023-04-02T04:32:42.022Z,98.55
2023-04-02T04:33:14.430Z,98.55
2023-04-02T04:33:46.895Z,98.35
2023-04-02T04:34:19.332Z,98.24
2023-04-02T04:34:51.783Z,98.35
2023-04-02T04:35:24.207Z,98.35
2023-04-02T04:35:56.645Z,98.45
2023-04-02T04:36:29.124Z,98.66
2023-04-02T04:37:01.493Z,98.66
2023-04-02T04:37:33.943Z,98.55
2023-04-02T04:38:06.374Z,98.45
2023-04-02T04:38:38.852Z,98.55
2023-04-02T04:39:11.309Z,98.55
2023-04-02T04:39:43.741Z,98.03
2023-04-02T04:40:16.143Z,98.03
2023-04-02T04:40:48.600Z,98.14
2023-04-02T04:41:21.058Z,97.93
2023-04-02T04:41:53.514Z,98.03
2023-04-02T04:42:25.961Z,98.14
2023-04-02T04:42:58.445Z,98.03
2023-04-02T04:43:30.994Z,98.03
2023-04-02T04:44:03.466Z,98.14
2023-04-02T04:44:35.923Z,97.93
2023-04-02T04:45:08.410Z,97.83
2023-04-02T04:45:40.889Z,97.83
2023-04-02T04:46:13.402Z,97.72
2023-04-02T04:46:45.797Z,97.72
2023-04-02T04:47:18.273Z,97.52
2023-04-02T04:47:50.753Z,97.41
2023-04-02T04:48:23.141Z,97.62
2023-04-02T04:48:55.593Z,97.72
2023-04-02T04:49:28.042Z,97.72
2023-04-02T04:50:00.473Z,97.93
2023-04-02T04:50:32.981Z,97.93
2023-04-02T04:51:05.428Z,97.72
2023-04-02T04:51:37.929Z,97.72
2023-04-02T04:52:10.417Z,97.62
2023-04-02T04:52:42.883Z,97.52
2023-04-02T04:53:15.323Z,97.52
2023-04-02T04:53:47.809Z,97.31
2023-04-02T04:54:20.332Z,97.62
2023-04-02T04:54:52.693Z,97.62
2023-04-02T04:55:25.120Z,97.93
2023-04-02T04:56:03.458Z,98.03
2023-04-02T04:56:30.055Z,97.93
2023-04-02T04:57:02.551Z,98.14
2023-04-02T04:57:34.996Z,97.93
2023-04-02T04:58:07.415Z,97.93
2023-04-02T04:58:39.897Z,97.93
2023-04-02T04:59:12.366Z,97.83
2023-04-02T04:59:44.819Z,97.62
2023-04-02T05:00:17.276Z,97.62
2023-04-02T05:00:50.195Z,97.72
2023-04-02T05:01:22.212Z,97.52
2023-04-02T05:01:54.746Z,97.20
2023-04-02T05:02:27.145Z,97.10
2023-04-02T05:02:59.595Z,97.25
2023-04-02T05:03:32.043Z,97.35
2023-04-02T05:04:04.554Z,97.35
2023-04-02T05:04:37.101Z,97.04
2023-04-02T05:05:09.575Z,97.25
2023-04-02T05:05:42.039Z,97.35
2023-04-02T05:06:14.466Z,97.25
2023-04-02T05:06:46.954Z,97.25
2023-04-02T05:07:19.429Z,97.35
2023-04-02T05:07:51.884Z,97.35
2023-04-02T05:08:24.411Z,97.45
2023-04-02T05:08:56.881Z,97.04
2023-04-02T05:09:29.387Z,97.14
2023-04-02T05:10:01.832Z,97.04
2023-04-02T05:10:34.305Z,97.25
2023-04-02T05:11:06.726Z,97.56
2023-04-02T05:11:39.179Z,97.67
2023-04-02T05:12:11.625Z,97.67
2023-04-02T05:12:44.077Z,97.56
2023-04-02T05:13:16.537Z,97.45
2023-04-02T05:13:48.994Z,97.56
2023-04-02T05:14:21.429Z,97.35
2023-04-02T05:14:53.891Z,97.14
2023-04-02T05:15:26.340Z,97.25
2023-04-02T05:16:00.086Z,97.25
2023-04-02T05:16:31.423Z,97.25
2023-04-02T05:17:03.685Z,97.35
2023-04-02T05:17:36.201Z,97.14
2023-04-02T05:18:08.613Z,96.83
2023-04-02T05:18:41.040Z,96.94
2023-04-02T05:19:13.494Z,97.04
2023-04-02T05:19:45.924Z,96.94
2023-04-02T05:20:18.402Z,96.94
2023-04-02T05:20:50.825Z,96.62
2023-04-02T05:21:23.298Z,96.62
2023-04-02T05:21:55.756Z,96.83
2023-04-02T05:22:28.201Z,96.83
2023-04-02T05:23:00.674Z,96.94
2023-04-02T05:23:33.114Z,96.83
2023-04-02T05:24:05.568Z,96.62
2023-04-02T05:24:38.033Z,96.52
2023-04-02T05:25:10.516Z,96.94
2023-04-02T05:25:42.964Z,97.04
2023-04-02T05:26:15.487Z,97.14
2023-04-02T05:26:47.952Z,97.04
2023-04-02T05:27:20.425Z,97.04
2023-04-02T05:27:52.986Z,97.04
2023-04-02T05:28:25.474Z,97.14
2023-04-02T05:28:58.011Z,96.94
2023-04-02T05:29:30.501Z,96.73
2023-04-02T05:30:03.135Z,96.42
2023-04-02T05:30:35.567Z,96.62
2023-04-02T05:31:08.034Z,96.83
2023-04-02T05:31:40.500Z,96.73
2023-04-02T05:32:12.882Z,96.62
2023-04-02T05:32:45.399Z,96.83
2023-04-02T05:33:17.813Z,96.94
2023-04-02T05:33:50.246Z,96.83
2023-04-02T05:34:22.689Z,96.62
2023-04-02T05:34:55.146Z,96.83
2023-04-02T05:35:27.541Z,96.73
2023-04-02T05:36:00.067Z,96.73
2023-04-02T05:36:32.474Z,96.62
2023-04-02T05:37:06.853Z,96.73
2023-04-02T05:37:37.414Z,96.83
2023-04-02T05:38:09.849Z,96.94
2023-04-02T05:38:42.307Z,96.83
2023-04-02T05:39:15.091Z,96.73
2023-04-02T05:39:47.533Z,96.52
2023-04-02T05:40:20.055Z,96.62
2023-04-02T05:40:52.491Z,96.73
2023-04-02T05:41:24.951Z,96.94
2023-04-02T05:41:57.426Z,97.04
2023-04-02T05:42:29.856Z,97.04
2023-04-02T05:43:02.365Z,96.94
2023-04-02T05:43:34.769Z,96.83
2023-04-02T05:44:07.233Z,96.73
2023-04-02T05:44:39.670Z,96.62
2023-04-02T05:45:12.102Z,96.94
2023-04-02T05:45:44.545Z,96.83
2023-04-02T05:46:17.061Z,96.52
2023-04-02T05:46:49.548Z,96.62
2023-04-02T05:47:22.002Z,96.83
2023-04-02T05:47:54.473Z,96.73
2023-04-02T05:48:26.829Z,96.83
2023-04-02T05:48:59.264Z,96.52
2023-04-02T05:49:31.744Z,96.21
2023-04-02T05:50:04.195Z,95.90
2023-04-02T05:50:36.646Z,95.79
2023-04-02T05:51:09.102Z,95.90
2023-04-02T05:51:41.558Z,95.90
2023-04-02T05:52:14.017Z,95.59
2023-04-02T05:52:46.572Z,95.79
2023-04-02T05:53:19.041Z,96.00
2023-04-02T05:53:51.447Z,95.69
2023-04-02T05:54:23.869Z,95.69
2023-04-02T05:54:56.348Z,95.90
2023-04-02T05:55:28.850Z,96.00
2023-04-02T05:56:01.364Z,95.90
2023-04-02T05:56:33.827Z,95.48
2023-04-02T05:57:06.256Z,95.38
2023-04-02T05:57:46.771Z,95.48
2023-04-02T05:58:45.513Z,95.48
2023-04-02T05:59:16.034Z,95.48
2023-04-02T05:59:48.470Z,95.28
2023-04-02T06:00:20.890Z,95.38
2023-04-02T06:00:53.371Z,95.59
2023-04-02T06:01:25.858Z,95.48
2023-04-02T06:01:58.275Z,95.59
2023-04-02T06:02:31.009Z,95.59
2023-04-02T06:03:03.333Z,95.69
2023-04-02T06:03:35.729Z,95.59
2023-04-02T06:04:08.121Z,95.38
2023-04-02T06:04:40.550Z,95.69
2023-04-02T06:05:13.020Z,95.90
2023-04-02T06:05:45.463Z,96.00
2023-04-02T06:06:17.892Z,95.59
2023-04-02T06:06:50.361Z,95.59
2023-04-02T06:07:22.835Z,95.48
2023-04-02T06:07:55.340Z,95.48
2023-04-02T06:08:27.752Z,95.79
2023-04-02T06:09:00.227Z,95.69
2023-04-02T06:09:32.697Z,95.79
2023-04-02T06:10:05.110Z,95.38
2023-04-02T06:10:37.536Z,95.28
2023-04-02T06:11:09.994Z,95.38
2023-04-02T06:11:42.459Z,95.48
2023-04-02T06:12:14.901Z,95.17
2023-04-02T06:12:47.320Z,95.07
2023-04-02T06:13:19.722Z,95.07
2023-04-02T06:13:52.191Z,95.38
2023-04-02T06:14:24.637Z,95.59
2023-04-02T06:14:57.098Z,95.48
2023-04-02T06:15:29.558Z,95.17
2023-04-02T06:16:02.015Z,95.17
2023-04-02T06:16:34.586Z,95.48
2023-04-02T06:17:06.922Z,95.79
2023-04-02T06:17:39.396Z,95.48
2023-04-02T06:18:11.804Z,94.76
2023-04-02T06:18:44.255Z,94.13
2023-04-02T06:19:16.692Z,94.13
2023-04-02T06:19:49.156Z,94.34
2023-04-02T06:20:21.597Z,94.34
2023-04-02T06:20:54.052Z,94.55
2023-04-02T06:21:26.501Z,94.86
2023-04-02T06:21:58.981Z,94.86
2023-04-02T06:22:31.459Z,94.76
2023-04-02T06:23:03.960Z,95.07
2023-04-02T06:23:36.371Z,94.65
2023-04-02T06:24:08.824Z,94.13
2023-04-02T06:24:41.268Z,94.55
2023-04-02T06:25:13.734Z,94.76
2023-04-02T06:25:46.185Z,94.96
2023-04-02T06:26:18.668Z,94.86
2023-04-02T06:26:51.141Z,94.24
2023-04-02T06:27:23.563Z,94.13
2023-04-02T06:27:55.998Z,94.34
2023-04-02T06:28:28.451Z,94.24
2023-04-02T06:29:00.893Z,94.24
2023-04-02T06:29:33.332Z,94.13
2023-04-02T06:30:05.797Z,94.34
2023-04-02T06:30:38.269Z,94.34
2023-04-02T06:31:10.773Z,94.34
2023-04-02T06:31:43.194Z,94.45
2023-04-02T06:32:15.652Z,94.45
2023-04-02T06:32:48.129Z,94.45
2023-04-02T06:33:20.597Z,94.55
2023-04-02T06:33:53.081Z,94.65
2023-04-02T06:34:25.541Z,94.45
2023-04-02T06:34:57.968Z,94.45
2023-04-02T06:35:30.415Z,94.13
2023-04-02T06:36:02.925Z,94.13
2023-04-02T06:36:35.295Z,94.13
2023-04-02T06:37:07.734Z,93.93
2023-04-02T06:37:40.162Z,93.82
2023-04-02T06:38:12.613Z,93.62
2023-04-02T06:38:45.073Z,93.62
2023-04-02T06:39:17.548Z,93.72
2023-04-02T06:39:49.990Z,93.93
2023-04-02T06:40:22.480Z,93.82
2023-04-02T06:40:55.807Z,94.24
2023-04-02T06:41:27.348Z,94.55
2023-04-02T06:41:59.800Z,94.51
2023-04-02T06:42:32.274Z,94.51
2023-04-02T06:43:04.721Z,94.71
2023-04-02T06:43:37.184Z,94.30
2023-04-02T06:44:09.621Z,94.20
2023-04-02T06:44:42.079Z,93.99
2023-04-02T06:45:14.516Z,93.68
2023-04-02T06:45:47.026Z,93.78
2023-04-02T06:46:19.487Z,94.20
2023-04-02T06:46:52.587Z,94.61
2023-04-02T06:47:24.466Z,94.40
2023-04-02T06:47:56.872Z,94.61
2023-04-02T06:48:29.268Z,94.82
2023-04-02T06:49:01.734Z,94.92
2023-04-02T06:49:34.184Z,94.78
2023-04-02T06:50:06.618Z,94.61
2023-04-02T06:50:39.078Z,94.57
2023-04-02T06:51:11.488Z,94.46
2023-04-02T06:51:43.931Z,94.46
2023-04-02T06:52:16.389Z,93.84
2023-04-02T06:52:48.833Z,93.26
2023-04-02T06:53:21.327Z,92.74
2023-04-02T06:53:53.800Z,92.53
2023-04-02T06:54:26.264Z,92.53
2023-04-02T06:54:58.749Z,92.94
2023-04-02T06:55:31.247Z,93.37
2023-04-02T06:56:03.671Z,93.68
2023-04-02T06:56:36.117Z,93.68
2023-04-02T06:57:08.570Z,93.68
2023-04-02T06:57:42.582Z,93.68
2023-04-02T06:58:13.469Z,93.16
2023-04-02T06:58:45.960Z,93.26